Buritirama, Brazil
Current Conditions -  °F | °C
As of 5:00 PM on Monday 22 Dec 2014 (Local Time) from SBPL Reporting Station
Few Clouds Few Clouds  
Wind Chill: 90°   Ceiling: Unl
Heat Index: 93°   Visibility: 6mi
Dew Point: 68°   Wind: 8mph
Humidity: 49%   Direction: 160°SSE
Pressure: 29.88"   Gusts: NA
Location:  10.73°S, 43.65°W
Report Text: SBPL 222000Z 16007KT 9999 FEW023 32/20 Q1012
Loading
Personal Weather Stations






























Interactive Weather Map New forecast layout! Learn more

10-Day Weather Forecast

Advertisements
Track Severe Weather on mobile